Time;durP1;ratioP1;P1;durP2;ratioP2;P2;SDS_P1;SDS_P2;PMS_P1;PMS_P2;Temp;Humidity;BMP_temperature;BMP_pressure;BME280_temperature;BME280_humidity;BME280_pressure;Samples;Min_cycle;Max_cycle;Signal;HPM_P1;HPM_P2
2023/06/29 00:00:21;;;;;;;;;;;17.90;99.90;;;;;;5048410;28;19931;-89
2023/06/29 00:02:47;;;;;;;;;;;17.90;99.90;;;;;;5040261;28;19929;-89
2023/06/29 00:05:13;;;;;;;;;;;17.90;99.90;;;;;;5039033;28;20396;-89
2023/06/29 00:07:39;;;;;;;;;;;17.90;99.90;;;;;;5037955;28;19925;-89
2023/06/29 00:10:05;;;;;;;;;;;17.90;99.90;;;;;;5038466;28;19925;-88
2023/06/29 00:12:30;;;;;;;;;;;17.90;99.90;;;;;;5047055;28;19964;-88
2023/06/29 00:14:56;;;;;;;;;;;17.90;99.90;;;;;;5046368;28;19983;-89
2023/06/29 00:17:22;;;;;;;;;;;17.90;99.90;;;;;;5030647;28;19932;-88
2023/06/29 00:19:48;;;;;;;;;;;17.90;99.90;;;;;;5052487;28;19925;-89
2023/06/29 00:22:15;;;;;;;;;;;17.90;99.90;;;;;;5042382;28;19977;-89
2023/06/29 00:24:43;;;;;;;;;;;17.90;99.90;;;;;;5045400;28;19979;-90
2023/06/29 00:27:12;;;;;;;;;;;17.90;99.90;;;;;;5040489;28;20228;-89
2023/06/29 00:29:40;;;;;;;;;;;17.90;99.90;;;;;;5038693;28;19925;-88
2023/06/29 00:32:06;;;;;;;;;;;17.90;99.90;;;;;;5045429;28;20015;-89
2023/06/29 00:34:31;;;;;;;;;;;17.90;99.90;;;;;;5040889;28;20008;-88
2023/06/29 00:36:57;;;;;;;;;;;17.90;99.90;;;;;;5037358;28;20448;-90
2023/06/29 00:39:22;;;;;;;;;;;17.90;99.90;;;;;;5050908;28;19975;-89
2023/06/29 00:41:54;;;;;;;;;;;17.90;99.90;;;;;;5050494;28;19929;-90
2023/06/29 00:44:20;;;;;;;;;;;17.90;99.90;;;;;;5042507;28;19975;-87
2023/06/29 00:46:47;;;;;;;;;;;17.90;99.90;;;;;;5047921;28;19947;-88
2023/06/29 00:49:12;;;;;;;;;;;17.90;99.90;;;;;;5049789;28;20036;-90
2023/06/29 00:51:38;;;;;;;;;;;17.90;99.90;;;;;;5035327;28;20341;-88
2023/06/29 00:54:04;;;;;;;;;;;17.90;99.90;;;;;;5053056;28;19978;-89
2023/06/29 00:56:30;;;;;;;;;;;17.90;99.90;;;;;;5050023;28;19979;-87
2023/06/29 00:58:56;;;;;;;;;;;17.90;99.90;;;;;;5043324;28;19931;-88
2023/06/29 01:01:21;;;;;;;;;;;17.90;99.90;;;;;;5042079;28;19925;-87
2023/06/29 01:03:47;;;;;;;;;;;17.90;99.90;;;;;;5050472;28;20055;-87
2023/06/29 01:06:15;;;;;;;;;;;17.90;99.90;;;;;;5045899;28;20300;-87
2023/06/29 01:08:42;;;;;;;;;;;17.90;99.90;;;;;;5030057;28;19925;-88
2023/06/29 01:11:08;;;;;;;;;;;17.90;99.90;;;;;;5045349;28;20055;-88
2023/06/29 01:13:36;;;;;;;;;;;17.90;99.90;;;;;;5022170;28;19925;-88
2023/06/29 01:16:01;;;;;;;;;;;17.90;99.90;;;;;;5051806;28;19948;-88
2023/06/29 01:18:28;;;;;;;;;;;17.90;99.90;;;;;;5052918;28;19929;-84
2023/06/29 01:20:54;;;;;;;;;;;17.90;99.90;;;;;;5052938;28;19940;-88
2023/06/29 01:23:28;;;;;;;;;;;17.80;99.90;;;;;;5045487;28;19929;-88
2023/06/29 01:25:54;;;;;;;;;;;17.80;99.90;;;;;;5044014;28;20034;-89
2023/06/29 01:28:20;;;;;;;;;;;17.80;99.90;;;;;;5052964;28;20376;-88
2023/06/29 01:30:49;;;;;;;;;;;17.80;99.90;;;;;;5049626;28;19925;-88
2023/06/29 01:33:22;;;;;;;;;;;17.80;99.90;;;;;;5041203;28;19983;-88
2023/06/29 01:35:48;;;;;;;;;;;17.80;99.90;;;;;;5051998;28;20323;-86
2023/06/29 01:38:20;;;;;;;;;;;17.80;99.90;;;;;;5040062;28;20024;-88
2023/06/29 01:40:48;;;;;;;;;;;17.80;99.90;;;;;;5039037;28;19935;-87
2023/06/29 01:43:15;;;;;;;;;;;17.80;99.90;;;;;;5051862;28;19925;-88
2023/06/29 01:45:41;;;;;;;;;;;17.70;99.90;;;;;;5053628;28;19932;-87
2023/06/29 01:48:07;;;;;;;;;;;17.80;99.90;;;;;;5035993;28;19924;-86
2023/06/29 01:50:32;;;;;;;;;;;17.80;99.90;;;;;;5039706;28;19925;-87
2023/06/29 01:52:58;;;;;;;;;;;17.80;99.90;;;;;;5040997;28;19925;-88
2023/06/29 01:55:24;;;;;;;;;;;17.80;99.90;;;;;;5048107;28;19929;-86
2023/06/29 01:57:49;;;;;;;;;;;17.70;99.90;;;;;;5039587;28;19928;-88
2023/06/29 02:00:15;;;;;;;;;;;17.70;99.90;;;;;;5032909;28;20007;-88
2023/06/29 02:02:41;;;;;;;;;;;17.70;99.90;;;;;;5050585;28;19924;-88
2023/06/29 02:05:07;;;;;;;;;;;17.70;99.90;;;;;;5052664;28;19925;-87
2023/06/29 02:07:33;;;;;;;;;;;17.70;99.90;;;;;;5053179;28;20400;-90
2023/06/29 02:09:59;;;;;;;;;;;17.70;99.90;;;;;;5032290;28;19968;-88
2023/06/29 02:12:24;;;;;;;;;;;17.70;99.90;;;;;;5045266;28;20021;-88
2023/06/29 02:14:50;;;;;;;;;;;17.70;99.90;;;;;;5043923;28;20414;-88
2023/06/29 02:17:16;;;;;;;;;;;17.70;99.90;;;;;;5048453;28;19924;-90
2023/06/29 02:19:41;;;;;;;;;;;17.70;99.90;;;;;;5052378;28;19925;-90
2023/06/29 02:22:07;;;;;;;;;;;17.70;99.90;;;;;;5052926;28;19936;-90
2023/06/29 02:24:34;;;;;;;;;;;17.70;99.90;;;;;;5035611;28;19924;-89
2023/06/29 02:27:01;;;;;;;;;;;17.70;99.90;;;;;;5044332;28;20372;-90
2023/06/29 02:29:26;;;;;;;;;;;17.70;99.90;;;;;;5052687;28;19929;-89
2023/06/29 02:31:52;;;;;;;;;;;17.70;99.90;;;;;;5025654;28;19925;-89
2023/06/29 02:34:17;;;;;;;;;;;17.70;99.90;;;;;;5043195;28;19987;-90
2023/06/29 02:36:43;;;;;;;;;;;17.70;99.90;;;;;;5040672;28;19932;-88
2023/06/29 02:39:09;;;;;;;;;;;17.70;99.90;;;;;;5048356;28;19925;-88
2023/06/29 02:41:34;;;;;;;;;;;17.60;99.90;;;;;;5049447;28;19931;-88
2023/06/29 02:44:00;;;;;;;;;;;17.70;99.90;;;;;;5033419;28;20292;-89
2023/06/29 02:46:26;;;;;;;;;;;17.70;99.90;;;;;;5041803;28;19925;-89
2023/06/29 02:48:51;;;;;;;;;;;17.70;99.90;;;;;;5049408;28;19932;-89
2023/06/29 02:51:17;;;;;;;;;;;17.70;99.90;;;;;;5026012;28;19929;-89
2023/06/29 02:53:42;;;;;;;;;;;17.70;99.90;;;;;;5044463;28;19967;-89
2023/06/29 02:56:08;;;;;;;;;;;17.70;99.90;;;;;;5033265;28;19925;-88
2023/06/29 02:58:33;;;;;;;;;;;17.70;99.90;;;;;;5052778;28;20333;-89
2023/06/29 03:00:59;;;;;;;;;;;17.70;99.90;;;;;;5041727;28;19936;-88
2023/06/29 03:03:24;;;;;;;;;;;17.70;99.90;;;;;;5046509;28;19924;-87
2023/06/29 03:05:50;;;;;;;;;;;17.70;99.90;;;;;;5050774;28;19925;-89
2023/06/29 03:08:16;;;;;;;;;;;17.70;99.90;;;;;;5043631;28;20408;-89
2023/06/29 03:10:41;;;;;;;;;;;17.70;99.90;;;;;;5047943;28;19929;-88
2023/06/29 03:13:07;;;;;;;;;;;17.70;99.90;;;;;;5047953;28;19978;-90
2023/06/29 03:15:32;;;;;;;;;;;17.70;99.90;;;;;;5052293;28;19940;-89
2023/06/29 03:17:58;;;;;;;;;;;17.60;99.90;;;;;;5049649;28;19995;-89
2023/06/29 03:20:24;;;;;;;;;;;17.60;99.90;;;;;;5033764;28;19925;-88
2023/06/29 03:22:49;;;;;;;;;;;17.60;99.90;;;;;;5051416;28;19933;-88
2023/06/29 03:25:15;;;;;;;;;;;17.60;99.90;;;;;;5050901;28;19933;-88
2023/06/29 03:27:40;;;;;;;;;;;17.60;99.90;;;;;;5049678;28;20373;-89
2023/06/29 03:30:06;;;;;;;;;;;17.60;99.90;;;;;;5050531;28;20059;-90
2023/06/29 03:32:32;;;;;;;;;;;17.60;99.90;;;;;;5050558;28;19943;-90
2023/06/29 03:34:57;;;;;;;;;;;17.60;99.90;;;;;;5050903;28;20283;-89
2023/06/29 03:37:23;;;;;;;;;;;17.60;99.90;;;;;;5047679;28;19925;-89
2023/06/29 03:39:49;;;;;;;;;;;17.60;99.90;;;;;;5033823;28;19925;-90
2023/06/29 03:42:14;;;;;;;;;;;17.60;99.90;;;;;;5046576;28;19924;-90
2023/06/29 03:44:40;;;;;;;;;;;17.60;99.90;;;;;;5052150;28;20392;-90
2023/06/29 03:47:06;;;;;;;;;;;17.60;99.90;;;;;;5038794;28;19929;-89
2023/06/29 03:49:32;;;;;;;;;;;17.70;99.90;;;;;;5035083;28;19932;-89
2023/06/29 03:51:58;;;;;;;;;;;17.60;99.90;;;;;;5052884;28;19925;-88
2023/06/29 03:54:23;;;;;;;;;;;17.70;99.90;;;;;;5041747;28;19931;-89
2023/06/29 03:56:49;;;;;;;;;;;17.70;99.90;;;;;;5053401;28;19929;-90
2023/06/29 03:59:15;;;;;;;;;;;17.70;99.90;;;;;;5041624;28;19925;-90
2023/06/29 04:01:40;;;;;;;;;;;17.70;99.90;;;;;;5041949;28;19933;-89
2023/06/29 04:04:06;;;;;;;;;;;17.80;99.90;;;;;;5041089;28;19929;-90
2023/06/29 04:06:31;;;;;;;;;;;17.80;99.90;;;;;;5050383;28;19948;-88
2023/06/29 04:08:57;;;;;;;;;;;17.80;99.90;;;;;;5045820;28;19925;-90
2023/06/29 04:11:22;;;;;;;;;;;17.90;99.90;;;;;;5043795;28;19931;-90
2023/06/29 04:13:48;;;;;;;;;;;17.90;99.90;;;;;;5034687;28;19925;-90
2023/06/29 04:16:13;;;;;;;;;;;17.90;99.90;;;;;;5051939;28;19968;-90
2023/06/29 04:18:39;;;;;;;;;;;17.90;99.90;;;;;;5040751;28;20339;-88
2023/06/29 04:21:05;;;;;;;;;;;18.00;99.90;;;;;;5047687;28;19924;-89
2023/06/29 04:23:30;;;;;;;;;;;18.00;99.90;;;;;;5050744;28;19925;-90
2023/06/29 04:25:56;;;;;;;;;;;18.00;99.90;;;;;;5052108;28;20383;-92
2023/06/29 04:28:21;;;;;;;;;;;18.00;99.90;;;;;;5050495;28;19925;-91
2023/06/29 04:30:47;;;;;;;;;;;18.00;99.90;;;;;;5056497;28;19925;-89
2023/06/29 04:33:15;;;;;;;;;;;18.00;99.90;;;;;;5067696;28;19925;-89
2023/06/29 04:35:41;;;;;;;;;;;18.10;99.90;;;;;;5047477;28;19929;-90
2023/06/29 04:38:09;;;;;;;;;;;18.10;99.90;;;;;;5044484;28;19974;-89
2023/06/29 04:40:34;;;;;;;;;;;18.10;99.90;;;;;;5053428;28;19931;-89
2023/06/29 04:43:01;;;;;;;;;;;18.10;99.90;;;;;;5062267;28;19929;-88
2023/06/29 04:45:26;;;;;;;;;;;18.20;99.90;;;;;;5050616;28;19951;-89
2023/06/29 04:47:54;;;;;;;;;;;18.20;99.90;;;;;;5046356;28;19925;-90
2023/06/29 04:50:25;;;;;;;;;;;18.30;99.90;;;;;;5036916;28;19932;-90
2023/06/29 04:52:54;;;;;;;;;;;18.40;99.90;;;;;;5053739;28;19925;-90
2023/06/29 04:55:20;;;;;;;;;;;18.50;99.90;;;;;;5039719;28;19933;-88
2023/06/29 04:57:46;;;;;;;;;;;18.60;99.90;;;;;;5047662;28;20403;-89
2023/06/29 05:00:12;;;;;;;;;;;18.70;99.90;;;;;;5050194;28;19955;-90
2023/06/29 05:02:38;;;;;;;;;;;18.70;99.90;;;;;;5054313;28;20023;-90
2023/06/29 05:05:07;;;;;;;;;;;18.80;99.90;;;;;;5046534;28;19925;-88
2023/06/29 05:07:33;;;;;;;;;;;18.80;99.90;;;;;;5034587;28;19974;-93
2023/06/29 05:09:58;;;;;;;;;;;18.80;99.90;;;;;;5054367;28;19925;-90
2023/06/29 05:12:24;;;;;;;;;;;18.80;99.90;;;;;;5035784;28;20272;-91
2023/06/29 05:14:50;;;;;;;;;;;18.80;99.90;;;;;;5054872;28;19929;-91
2023/06/29 05:17:17;;;;;;;;;;;18.80;99.90;;;;;;5047826;28;19925;-90
2023/06/29 05:19:43;;;;;;;;;;;18.80;99.90;;;;;;5052872;28;19924;-90
2023/06/29 05:22:08;;;;;;;;;;;18.90;99.90;;;;;;5053297;28;19925;-91
2023/06/29 05:24:34;;;;;;;;;;;18.90;99.90;;;;;;5052168;28;19925;-90
2023/06/29 05:27:00;;;;;;;;;;;18.90;99.90;;;;;;5043506;28;19940;-91
2023/06/29 05:29:25;;;;;;;;;;;19.00;99.90;;;;;;5054092;28;19971;-91
2023/06/29 05:31:51;;;;;;;;;;;18.90;99.90;;;;;;5043369;28;20339;-90
2023/06/29 05:34:16;;;;;;;;;;;19.00;99.90;;;;;;5045267;28;19928;-90
2023/06/29 05:36:42;;;;;;;;;;;19.00;99.90;;;;;;5044499;28;19971;-90
2023/06/29 05:39:08;;;;;;;;;;;19.00;99.90;;;;;;5050762;28;19925;-91
2023/06/29 05:41:33;;;;;;;;;;;19.00;99.90;;;;;;5052707;28;20035;-90
2023/06/29 05:43:59;;;;;;;;;;;19.00;99.90;;;;;;5050076;28;19951;-92
2023/06/29 05:46:25;;;;;;;;;;;19.10;99.90;;;;;;5038746;28;19932;-90
2023/06/29 05:48:51;;;;;;;;;;;19.10;99.90;;;;;;5028516;28;20046;-85
2023/06/29 05:51:16;;;;;;;;;;;19.20;99.90;;;;;;5032777;28;19925;-90
2023/06/29 05:53:42;;;;;;;;;;;19.20;99.90;;;;;;5049054;28;19924;-88
2023/06/29 05:56:07;;;;;;;;;;;19.30;99.90;;;;;;5047188;28;19968;-87
2023/06/29 05:58:33;;;;;;;;;;;19.40;99.90;;;;;;5054581;28;20054;-88
2023/06/29 06:00:59;;;;;;;;;;;19.50;99.90;;;;;;5043828;28;19925;-89
2023/06/29 06:03:24;;;;;;;;;;;19.60;99.90;;;;;;5050377;28;19925;-88
2023/06/29 06:05:52;;;;;;;;;;;19.60;99.90;;;;;;5035272;28;20310;-88
2023/06/29 06:08:17;;;;;;;;;;;19.70;99.90;;;;;;5054126;28;19924;-88
2023/06/29 06:10:43;;;;;;;;;;;19.70;99.90;;;;;;5048017;28;19974;-88
2023/06/29 06:13:09;;;;;;;;;;;19.80;99.90;;;;;;5040743;28;20462;-88
2023/06/29 06:15:34;;;;;;;;;;;19.80;99.90;;;;;;5053250;28;20019;-88
2023/06/29 06:18:00;;;;;;;;;;;19.80;99.90;;;;;;5050133;28;19991;-88
2023/06/29 06:20:25;;;;;;;;;;;19.80;99.90;;;;;;5051389;28;19936;-89
2023/06/29 06:22:51;;;;;;;;;;;19.90;99.90;;;;;;5018588;28;19956;-88
2023/06/29 06:25:17;;;;;;;;;;;19.80;99.90;;;;;;5032399;28;19925;-88
2023/06/29 06:27:43;;;;;;;;;;;19.90;99.90;;;;;;5041577;28;20353;-88
2023/06/29 06:30:09;;;;;;;;;;;19.90;99.90;;;;;;5050390;28;19924;-88
2023/06/29 06:32:36;;;;;;;;;;;19.90;99.90;;;;;;5050318;28;19932;-88
2023/06/29 06:35:03;;;;;;;;;;;20.00;99.90;;;;;;5053406;28;19925;-88
2023/06/29 06:37:29;;;;;;;;;;;20.00;99.90;;;;;;5051897;28;19978;-88
2023/06/29 06:39:55;;;;;;;;;;;20.00;99.90;;;;;;5052058;28;19924;-86
2023/06/29 06:42:20;;;;;;;;;;;20.10;99.90;;;;;;5052224;28;19925;-87
2023/06/29 06:44:53;;;;;;;;;;;20.00;99.90;;;;;;5053396;28;20280;-88
2023/06/29 06:47:19;;;;;;;;;;;20.10;99.90;;;;;;5048606;28;19925;-86
2023/06/29 06:49:45;;;;;;;;;;;20.10;99.90;;;;;;5047955;28;20415;-87
2023/06/29 06:52:11;;;;;;;;;;;20.10;99.90;;;;;;5046597;28;19925;-88
2023/06/29 06:54:36;;;;;;;;;;;20.20;99.90;;;;;;5053343;28;19932;-88
2023/06/29 06:57:02;;;;;;;;;;;20.20;99.90;;;;;;5047382;28;19933;-88
2023/06/29 06:59:28;;;;;;;;;;;20.30;99.90;;;;;;5043333;28;19931;-88
2023/06/29 07:01:54;;;;;;;;;;;20.30;99.90;;;;;;5045172;28;19979;-87
2023/06/29 07:04:19;;;;;;;;;;;20.30;99.90;;;;;;5048150;28;20253;-87
2023/06/29 07:06:46;;;;;;;;;;;20.30;99.90;;;;;;5038000;28;19925;-88
2023/06/29 07:09:12;;;;;;;;;;;20.30;99.90;;;;;;5045493;28;19948;-87
2023/06/29 07:11:38;;;;;;;;;;;20.30;99.90;;;;;;5046759;28;19924;-88
2023/06/29 07:14:04;;;;;;;;;;;20.30;99.90;;;;;;5048620;28;20019;-88
2023/06/29 07:16:30;;;;;;;;;;;20.40;99.90;;;;;;5043896;28;19929;-88
2023/06/29 07:19:08;;;;;;;;;;;20.40;99.90;;;;;;5051719;28;19924;-88
2023/06/29 07:21:33;;;;;;;;;;;20.40;99.90;;;;;;5052305;28;20428;-88
2023/06/29 07:23:59;;;;;;;;;;;20.40;99.90;;;;;;5046414;28;19976;-87
2023/06/29 07:26:25;;;;;;;;;;;20.40;99.90;;;;;;5047209;28;19925;-88
2023/06/29 07:28:51;;;;;;;;;;;20.40;99.90;;;;;;5051108;28;20016;-88
2023/06/29 07:31:17;;;;;;;;;;;20.40;99.90;;;;;;5048174;28;20047;-88
2023/06/29 07:33:42;;;;;;;;;;;20.40;99.90;;;;;;5047616;28;19932;-88
2023/06/29 07:36:08;;;;;;;;;;;20.30;99.90;;;;;;5046728;28;20005;-88
2023/06/29 07:38:34;;;;;;;;;;;20.30;99.90;;;;;;5034078;28;20279;-88
2023/06/29 07:41:03;;;;;;;;;;;20.20;99.90;;;;;;5049380;28;19933;-88
2023/06/29 07:43:28;;;;;;;;;;;20.20;99.90;;;;;;5052887;28;19932;-90
2023/06/29 07:45:54;;;;;;;;;;;20.20;99.90;;;;;;5040099;28;19925;-90
2023/06/29 07:48:19;;;;;;;;;;;20.20;99.90;;;;;;5050235;28;20016;-89
2023/06/29 07:50:45;;;;;;;;;;;20.20;99.90;;;;;;5028428;28;20012;-91
2023/06/29 07:53:11;;;;;;;;;;;20.20;99.90;;;;;;5052915;28;19932;-90
2023/06/29 07:55:36;;;;;;;;;;;20.20;99.90;;;;;;5042957;28;19991;-88
2023/06/29 07:58:02;;;;;;;;;;;20.20;99.90;;;;;;5054055;28;20353;-90
2023/06/29 08:00:28;;;;;;;;;;;20.10;99.90;;;;;;5055184;28;19947;-90
2023/06/29 08:02:53;;;;;;;;;;;20.10;99.90;;;;;;5052219;28;20024;-90
2023/06/29 08:05:19;;;;;;;;;;;20.10;99.90;;;;;;5019829;28;20417;-89
2023/06/29 08:07:45;;;;;;;;;;;20.10;99.90;;;;;;5037764;28;19933;-90
2023/06/29 08:10:11;;;;;;;;;;;20.20;99.90;;;;;;5049189;28;19939;-91
2023/06/29 08:12:36;;;;;;;;;;;20.20;99.90;;;;;;5044601;28;19925;-90
2023/06/29 08:15:02;;;;;;;;;;;20.30;99.90;;;;;;5054713;28;19931;-90
2023/06/29 08:17:29;;;;;;;;;;;20.40;99.90;;;;;;5051725;28;19925;-90
2023/06/29 08:19:54;;;;;;;;;;;20.50;99.90;;;;;;5044764;28;20399;-91
2023/06/29 08:22:20;;;;;;;;;;;20.60;99.90;;;;;;5046703;28;19932;-90
2023/06/29 08:24:45;;;;;;;;;;;20.80;99.90;;;;;;5044940;28;19925;-91
2023/06/29 08:27:17;;;;;;;;;;;20.90;99.90;;;;;;5043261;28;20059;-91
2023/06/29 08:29:43;;;;;;;;;;;21.20;99.90;;;;;;5051453;28;20299;-90
2023/06/29 08:32:09;;;;;;;;;;;21.20;99.90;;;;;;5049589;28;19925;-90
2023/06/29 08:34:34;;;;;;;;;;;21.20;99.90;;;;;;5058273;28;19935;-91
2023/06/29 08:37:00;;;;;;;;;;;21.30;99.90;;;;;;5039836;28;19979;-88
2023/06/29 08:39:26;;;;;;;;;;;21.40;99.90;;;;;;5053432;28;19935;-91
2023/06/29 08:41:52;;;;;;;;;;;21.50;99.90;;;;;;5062215;28;19925;-90
2023/06/29 08:44:18;;;;;;;;;;;21.60;99.90;;;;;;5052251;28;19925;-90
2023/06/29 08:46:46;;;;;;;;;;;21.70;99.90;;;;;;5057599;28;19979;-90
2023/06/29 08:49:11;;;;;;;;;;;21.80;99.90;;;;;;5066569;28;19971;-90
2023/06/29 08:51:39;;;;;;;;;;;21.90;99.90;;;;;;5062682;28;19925;-91
2023/06/29 08:54:05;;;;;;;;;;;22.00;99.90;;;;;;5033370;28;19925;-90
2023/06/29 08:56:31;;;;;;;;;;;22.00;99.90;;;;;;5042113;28;19932;-91
2023/06/29 08:58:57;;;;;;;;;;;22.10;99.90;;;;;;5054933;28;19925;-90
2023/06/29 09:01:23;;;;;;;;;;;22.20;99.90;;;;;;5039999;28;19970;-90
2023/06/29 09:03:49;;;;;;;;;;;22.20;99.90;;;;;;5033103;28;19925;-92
2023/06/29 09:06:15;;;;;;;;;;;22.20;99.90;;;;;;5053121;28;19925;-91
2023/06/29 09:08:40;;;;;;;;;;;22.30;99.90;;;;;;5056610;28;19932;-90
2023/06/29 09:11:06;;;;;;;;;;;22.20;99.90;;;;;;5048206;28;19944;-90
2023/06/29 09:13:33;;;;;;;;;;;22.10;99.90;;;;;;5052186;28;19924;-91
2023/06/29 09:16:00;;;;;;;;;;;22.00;99.90;;;;;;5059073;28;19924;-91
2023/06/29 09:18:27;;;;;;;;;;;22.00;99.90;;;;;;5050260;28;20019;-90
2023/06/29 09:20:54;;;;;;;;;;;22.00;99.90;;;;;;5044210;28;19932;-91
2023/06/29 09:23:20;;;;;;;;;;;22.00;99.90;;;;;;5057292;28;20357;-91
2023/06/29 09:25:48;;;;;;;;;;;22.00;99.90;;;;;;5041335;28;19933;-91
2023/06/29 09:28:13;;;;;;;;;;;22.10;99.90;;;;;;5045561;28;20131;-90
2023/06/29 09:30:40;;;;;;;;;;;22.00;99.90;;;;;;5055101;28;20368;-91
2023/06/29 09:33:10;;;;;;;;;;;22.10;99.90;;;;;;5048591;28;19956;-91
2023/06/29 09:35:36;;;;;;;;;;;22.10;99.90;;;;;;5049243;28;20360;-88
2023/06/29 09:38:02;;;;;;;;;;;22.10;99.90;;;;;;5050327;28;19928;-91
2023/06/29 09:40:29;;;;;;;;;;;22.00;99.90;;;;;;5035691;28;19925;-91
2023/06/29 09:42:54;;;;;;;;;;;22.00;99.90;;;;;;5052570;28;19994;-90
2023/06/29 09:45:20;;;;;;;;;;;21.90;99.90;;;;;;5054042;28;19962;-89
2023/06/29 09:47:50;;;;;;;;;;;21.90;99.90;;;;;;5046010;28;19935;-90
2023/06/29 09:50:19;;;;;;;;;;;21.70;99.90;;;;;;5052863;28;19925;-89
2023/06/29 09:52:45;;;;;;;;;;;21.70;99.90;;;;;;5052426;28;20384;-90
2023/06/29 09:55:11;;;;;;;;;;;21.70;99.90;;;;;;5054990;28;19993;-90
2023/06/29 09:57:39;;;;;;;;;;;21.60;99.90;;;;;;5055195;28;19924;-91
2023/06/29 10:00:09;;;;;;;;;;;21.60;99.90;;;;;;5055596;28;19976;-89
2023/06/29 10:02:35;;;;;;;;;;;21.60;99.90;;;;;;5043481;28;20464;-90
2023/06/29 10:05:00;;;;;;;;;;;21.70;99.90;;;;;;5055630;28;20027;-88
2023/06/29 10:07:26;;;;;;;;;;;21.70;99.90;;;;;;5050604;28;19952;-91
2023/06/29 10:09:53;;;;;;;;;;;21.80;99.90;;;;;;5037304;28;19933;-90
2023/06/29 10:12:22;;;;;;;;;;;22.00;99.90;;;;;;5046668;28;19948;-90
2023/06/29 10:14:49;;;;;;;;;;;22.00;99.90;;;;;;5044190;28;19925;-94
2023/06/29 10:17:35;;;;;;;;;;;22.00;99.90;;;;;;5058943;28;19989;-90
2023/06/29 10:20:03;;;;;;;;;;;21.90;99.90;;;;;;5046739;28;19925;-86
2023/06/29 10:22:29;;;;;;;;;;;21.70;99.90;;;;;;5034522;28;19931;-91
2023/06/29 10:25:02;;;;;;;;;;;21.70;99.90;;;;;;5041219;28;19928;-89
2023/06/29 10:27:28;;;;;;;;;;;21.50;99.90;;;;;;5040656;28;19972;-90
2023/06/29 10:29:54;;;;;;;;;;;21.40;99.90;;;;;;5045432;28;19932;-90
2023/06/29 10:32:39;;;;;;;;;;;21.30;99.90;;;;;;5041235;28;20384;-89
2023/06/29 10:35:08;;;;;;;;;;;21.20;99.90;;;;;;5051218;28;19925;-91
2023/06/29 10:37:35;;;;;;;;;;;21.10;99.90;;;;;;5027032;28;19979;-90
2023/06/29 10:40:04;;;;;;;;;;;21.10;99.90;;;;;;5050708;28;20016;-88
2023/06/29 10:42:33;;;;;;;;;;;21.10;99.90;;;;;;5043752;28;20407;-89
2023/06/29 10:44:58;;;;;;;;;;;21.10;99.90;;;;;;5035040;28;19936;-90
2023/06/29 10:47:25;;;;;;;;;;;21.10;99.90;;;;;;5053586;28;19951;-90
2023/06/29 10:49:55;;;;;;;;;;;21.10;99.90;;;;;;5040606;28;19936;-91
2023/06/29 10:52:24;;;;;;;;;;;21.20;99.90;;;;;;5043765;28;20261;-93
2023/06/29 10:55:09;;;;;;;;;;;21.30;99.90;;;;;;5055783;28;20012;-89
2023/06/29 10:57:35;;;;;;;;;;;21.40;99.90;;;;;;5053091;28;19933;-91
2023/06/29 11:00:01;;;;;;;;;;;21.60;99.90;;;;;;5054593;28;20042;-89
2023/06/29 11:02:27;;;;;;;;;;;21.70;99.90;;;;;;5022350;28;19928;-91
2023/06/29 11:04:53;;;;;;;;;;;21.80;99.90;;;;;;5050107;28;19971;-89
2023/06/29 11:07:18;;;;;;;;;;;21.90;99.90;;;;;;5048427;28;19987;-90
2023/06/29 11:09:44;;;;;;;;;;;22.00;99.90;;;;;;5047556;28;19986;-90
2023/06/29 11:12:10;;;;;;;;;;;22.10;99.90;;;;;;5052358;28;20023;-90
2023/06/29 11:14:38;;;;;;;;;;;22.10;99.90;;;;;;5051988;28;19925;-89
2023/06/29 11:17:08;;;;;;;;;;;22.10;99.90;;;;;;5051644;28;19932;-90
2023/06/29 11:19:33;;;;;;;;;;;22.10;99.90;;;;;;5048254;28;19932;-90
2023/06/29 11:21:59;;;;;;;;;;;22.20;99.90;;;;;;5053970;28;20353;-90
2023/06/29 11:24:25;;;;;;;;;;;22.30;99.90;;;;;;5054333;28;19925;-89
2023/06/29 11:26:52;;;;;;;;;;;22.50;99.90;;;;;;5036308;28;19987;-91
2023/06/29 11:29:18;;;;;;;;;;;22.60;99.90;;;;;;5053965;28;19925;-90
2023/06/29 11:31:44;;;;;;;;;;;22.60;99.90;;;;;;5050454;28;20059;-90
2023/06/29 11:34:12;;;;;;;;;;;22.60;99.90;;;;;;5034758;28;19929;-89
2023/06/29 11:36:38;;;;;;;;;;;22.50;99.90;;;;;;5055017;28;20300;-90
2023/06/29 11:39:04;;;;;;;;;;;22.40;99.90;;;;;;5034004;28;19932;-90
2023/06/29 11:41:31;;;;;;;;;;;22.20;99.90;;;;;;5050854;28;20015;-90
2023/06/29 11:43:58;;;;;;;;;;;22.10;99.90;;;;;;5050651;28;19931;-90
2023/06/29 11:46:23;;;;;;;;;;;22.10;99.90;;;;;;5039774;28;20272;-90
2023/06/29 11:48:54;;;;;;;;;;;22.20;99.90;;;;;;5050804;28;19948;-90
2023/06/29 11:51:19;;;;;;;;;;;22.40;99.90;;;;;;5042555;28;19929;-90
2023/06/29 11:53:45;;;;;;;;;;;22.50;99.90;;;;;;5041812;28;19925;-90
2023/06/29 11:56:22;;;;;;;;;;;22.70;99.90;;;;;;5045211;28;19978;-93
2023/06/29 11:58:48;;;;;;;;;;;22.90;99.90;;;;;;5040106;28;19925;-90
2023/06/29 12:01:14;;;;;;;;;;;23.00;99.90;;;;;;5039159;28;19933;-94
2023/06/29 12:03:40;;;;;;;;;;;23.10;99.90;;;;;;5043375;28;19936;-91
2023/06/29 12:06:06;;;;;;;;;;;23.00;99.90;;;;;;5036785;28;19928;-90
2023/06/29 12:08:40;;;;;;;;;;;22.80;99.90;;;;;;5048026;28;20003;-89
2023/06/29 12:11:13;;;;;;;;;;;22.80;99.90;;;;;;5043534;28;19932;-89
2023/06/29 12:13:42;;;;;;;;;;;22.80;99.90;;;;;;5054815;28;19932;-90
2023/06/29 12:16:09;;;;;;;;;;;23.00;99.90;;;;;;5054405;28;19936;-90
2023/06/29 12:18:34;;;;;;;;;;;23.20;99.90;;;;;;5054011;28;19975;-92
2023/06/29 12:21:03;;;;;;;;;;;23.30;99.90;;;;;;5037378;28;19964;-90
2023/06/29 12:23:28;;;;;;;;;;;23.60;99.90;;;;;;5051621;28;19925;-90
2023/06/29 12:25:54;;;;;;;;;;;23.90;99.90;;;;;;5038791;28;19945;-89
2023/06/29 12:28:21;;;;;;;;;;;24.10;99.90;;;;;;5053916;28;19929;-89
2023/06/29 12:30:47;;;;;;;;;;;24.30;99.90;;;;;;5042693;28;20320;-90
2023/06/29 12:33:13;;;;;;;;;;;24.30;99.90;;;;;;5047490;28;19951;-90
2023/06/29 12:35:38;;;;;;;;;;;24.40;99.90;;;;;;5048890;28;19986;-91
2023/06/29 12:38:05;;;;;;;;;;;24.60;99.90;;;;;;5050204;28;20120;-93
2023/06/29 12:40:31;;;;;;;;;;;24.70;99.90;;;;;;5052870;28;19975;-91
2023/06/29 12:42:57;;;;;;;;;;;24.90;99.90;;;;;;5051828;28;19924;-87
2023/06/29 12:45:23;;;;;;;;;;;25.20;99.90;;;;;;5051382;28;19964;-91
2023/06/29 12:47:49;;;;;;;;;;;25.30;99.90;;;;;;5056088;28;19929;-89
2023/06/29 12:50:15;;;;;;;;;;;25.50;99.90;;;;;;5051694;28;19932;-91
2023/06/29 12:52:41;;;;;;;;;;;25.50;99.90;;;;;;5052735;28;19929;-91
2023/06/29 12:55:07;;;;;;;;;;;25.40;99.90;;;;;;5033214;28;19947;-92
2023/06/29 12:57:32;;;;;;;;;;;25.20;99.90;;;;;;5050422;28;20245;-91
2023/06/29 12:59:59;;;;;;;;;;;25.10;99.90;;;;;;5035744;28;19924;-91
2023/06/29 13:02:25;;;;;;;;;;;25.00;99.90;;;;;;5048513;28;19936;-93
2023/06/29 13:04:50;;;;;;;;;;;24.90;99.90;;;;;;5052348;28;19925;-90
2023/06/29 13:07:17;;;;;;;;;;;24.80;99.90;;;;;;5052137;28;19968;-90
2023/06/29 13:09:43;;;;;;;;;;;24.50;99.90;;;;;;5055254;28;20008;-91
2023/06/29 13:12:09;;;;;;;;;;;24.40;99.90;;;;;;5045410;28;19925;-91
2023/06/29 13:14:34;;;;;;;;;;;24.50;99.90;;;;;;5052220;28;19925;-90
2023/06/29 13:17:00;;;;;;;;;;;24.70;99.90;;;;;;5051769;28;19935;-89
2023/06/29 13:19:26;;;;;;;;;;;24.90;99.90;;;;;;5049824;28;20274;-90
2023/06/29 13:21:52;;;;;;;;;;;24.90;99.90;;;;;;5051943;28;19935;-89
2023/06/29 13:24:18;;;;;;;;;;;24.80;99.90;;;;;;5041007;28;20398;-91
2023/06/29 13:26:44;;;;;;;;;;;24.50;99.90;;;;;;5025988;28;19987;-90
2023/06/29 13:29:10;;;;;;;;;;;24.50;99.90;;;;;;5037148;28;19936;-87
2023/06/29 13:31:36;;;;;;;;;;;24.40;99.90;;;;;;5049254;28;19925;-90
2023/06/29 13:34:01;;;;;;;;;;;24.60;99.90;;;;;;5046083;28;20400;-89
2023/06/29 13:36:27;;;;;;;;;;;24.80;99.90;;;;;;5040030;28;20009;-87
2023/06/29 13:38:52;;;;;;;;;;;24.60;99.90;;;;;;5051825;28;19932;-88
2023/06/29 13:41:19;;;;;;;;;;;24.70;99.90;;;;;;5048439;28;20094;-87
2023/06/29 13:43:45;;;;;;;;;;;24.20;99.90;;;;;;5054938;28;19948;-88
2023/06/29 13:46:11;;;;;;;;;;;23.90;99.90;;;;;;5051760;28;19925;-88
2023/06/29 13:48:36;;;;;;;;;;;23.80;99.90;;;;;;5054035;28;19925;-89
2023/06/29 13:51:02;;;;;;;;;;;23.50;99.90;;;;;;5046895;28;20020;-87
2023/06/29 13:53:27;;;;;;;;;;;23.10;99.90;;;;;;5054232;28;19925;-86
2023/06/29 13:55:53;;;;;;;;;;;23.00;99.90;;;;;;5051470;28;19929;-87
2023/06/29 13:58:18;;;;;;;;;;;22.80;99.90;;;;;;5050711;28;20172;-84
2023/06/29 14:00:44;;;;;;;;;;;22.70;99.90;;;;;;5044738;28;20372;-87
2023/06/29 14:03:10;;;;;;;;;;;23.00;99.90;;;;;;5033619;28;20020;-88
2023/06/29 14:05:35;;;;;;;;;;;22.50;99.90;;;;;;5056410;28;20299;-86
2023/06/29 14:08:01;;;;;;;;;;;22.50;99.90;;;;;;5058475;28;19964;-87
2023/06/29 14:10:27;;;;;;;;;;;22.50;99.90;;;;;;5039460;28;19932;-85